Seatac, WA (98188)

3:14 AM PDT on September 03, 2015 (GMT -0700)
Angle Lake Haven | | Change Station
CLOSE
Current Station
Personal Weather Station
Location: SeaTac, WA
Elevation: 417 ft
Nearby Weather Stations

Elev 417 ft 47.43 °N, 122.29 °W | Updated 6 seconds ago

Mostly Cloudy
Mostly Cloudy
52.0 °F
Feels Like 52.0 °F
N
1.8
Wind Variable Wind from ESE
Gusts 2.5 mph

Today
High -- | Low -- °F
--% Chance of Precip.
Yesterday
High -- | Low -- °F
Precip. -- in
6:30 AM 7:45 PM
Waning Gibbous, 71% visible
Pressure 29.99 in
Visibility 10.0 miles
Clouds Few 700 ft
Mostly Cloudy 1000 ft
Dew Point 51 °F
Humidity 98%
Rainfall 0.00 in
Snow Depth Not available.
UV 0.0 out of 12
Pollen .50 out of 12
Air Quality Not available.
Flu Activity Not available.
METAR KSEA 030953Z 00000KT 10SM FEW007 BKN010 11/10 A2997 RMK AO2 SLP155 T01110100 PNO $
Pressure 29.99 in
Visibility 10.0 miles
Clouds Few 700 ft
Mostly Cloudy 1000 ft
Dew Point 51 °F
Humidity 98%
Rainfall 0.00 in
Snow Depth Not available.
UV 0.0 out of 12
Pollen .50 out of 12
Air Quality Not available.
Flu Activity Not available.
METAR KSEA 030953Z 00000KT 10SM FEW007 BKN010 11/10 A2997 RMK AO2 SLP155 T01110100 PNO $

10-Day Weather Forecast

×

Almanac

Astronomy

Sep. 03, 2015 Rise Set
Actual Time
Civil Twilight
Nautical Twilight
Astronomical Twilight
Moon
Length of Visible Light
Length of Day
Tomorrow will be .
, % of the Moon is Illuminated

Today's Extremes

State Highs State Lows

Community

WunderPhotos

Upload Photos

1,851,929 photos uploaded!

WunderBlogs® & News

Nearby

Air Quality

  Air Quality AQ Index Pollutant
Not available.

Snow Depth

Station Depth Elevation

Earthquake Activity

City Distance Mag. Time & Date
Minimum magnitude displayed is 2.5.

Coastal Water Temperatures

Place Temperature

Stations

Nearby Weather Stations

Station Location Temp. Windchill Dew Point Humidity Wind Precip. Elev Updated Type